Time;durP1;ratioP1;P1;durP2;ratioP2;P2;SDS_P1;SDS_P2;PMS_P1;PMS_P2;Temp;Humidity;BMP_temperature;BMP_pressure;BME280_temperature;BME280_humidity;BME280_pressure;Samples;Min_cycle;Max_cycle;Signal;HPM_P1;HPM_P2
2022/02/13 00:01:34;;;;;;;;;;;1.00;99.90;;;;;;5031543;28;19916;-82
2022/02/13 00:03:59;;;;;;;;;;;1.00;99.90;;;;;;5058277;28;19909;-81
2022/02/13 00:06:25;;;;;;;;;;;1.00;99.90;;;;;;5040047;28;19909;-82
2022/02/13 00:08:50;;;;;;;;;;;1.00;99.90;;;;;;5037885;28;19941;-82
2022/02/13 00:11:16;;;;;;;;;;;1.10;99.90;;;;;;5019590;28;19917;-83
2022/02/13 00:13:42;;;;;;;;;;;1.10;89.00;;;;;;5015344;28;19917;-82
2022/02/13 00:16:08;;;;;;;;;;;1.20;1.00;;;;;;5028025;28;19913;-82
2022/02/13 00:18:33;;;;;;;;;;;1.20;1.00;;;;;;5035428;28;19917;-82
2022/02/13 00:20:59;;;;;;;;;;;1.20;1.00;;;;;;5035926;28;19964;-82
2022/02/13 00:23:24;;;;;;;;;;;1.30;1.00;;;;;;5018309;28;19917;-83
2022/02/13 00:25:50;;;;;;;;;;;1.30;1.00;;;;;;5018981;28;19995;-82
2022/02/13 00:28:15;;;;;;;;;;;1.30;1.00;;;;;;5035848;28;19913;-82
2022/02/13 00:30:46;;;;;;;;;;;1.30;1.00;;;;;;5030432;28;19918;-82
2022/02/13 00:33:15;;;;;;;;;;;1.40;1.00;;;;;;5037759;28;20301;-83
2022/02/13 00:35:45;;;;;;;;;;;1.40;1.00;;;;;;5024466;28;19913;-82
2022/02/13 00:38:10;;;;;;;;;;;1.40;1.00;;;;;;5036798;28;19978;-82
2022/02/13 00:40:36;;;;;;;;;;;1.40;1.00;;;;;;5036674;28;20328;-83
2022/02/13 00:43:02;;;;;;;;;;;1.40;1.00;;;;;;5018738;28;19909;-82
2022/02/13 00:45:27;;;;;;;;;;;1.40;1.00;;;;;;5019089;28;19917;-82
2022/02/13 00:47:53;;;;;;;;;;;1.40;1.00;;;;;;5033519;28;19909;-82
2022/02/13 00:50:18;;;;;;;;;;;1.30;1.00;;;;;;5013721;28;19959;-81
2022/02/13 00:52:44;;;;;;;;;;;1.30;1.00;;;;;;5026582;28;19920;-83
2022/02/13 00:55:09;;;;;;;;;;;1.40;1.00;;;;;;5017100;28;19920;-83
2022/02/13 00:57:35;;;;;;;;;;;1.40;1.00;;;;;;5036405;28;19917;-82
2022/02/13 01:00:00;;;;;;;;;;;1.40;1.00;;;;;;5018137;28;19968;-82
2022/02/13 01:02:26;;;;;;;;;;;1.30;1.00;;;;;;5018427;28;19913;-82
2022/02/13 01:04:51;;;;;;;;;;;1.30;1.00;;;;;;5015363;28;19919;-82
2022/02/13 01:07:17;;;;;;;;;;;1.30;1.00;;;;;;5034982;28;19952;-82
2022/02/13 01:09:42;;;;;;;;;;;1.30;1.00;;;;;;5035870;28;19920;-82
2022/02/13 01:12:08;;;;;;;;;;;1.30;1.00;;;;;;5035689;28;19913;-83
2022/02/13 01:14:34;;;;;;;;;;;1.30;1.00;;;;;;5037555;28;20001;-83
2022/02/13 01:16:59;;;;;;;;;;;1.30;1.00;;;;;;5037057;28;19917;-82
2022/02/13 01:19:24;;;;;;;;;;;1.20;1.00;;;;;;5036563;28;20073;-83
2022/02/13 01:21:50;;;;;;;;;;;1.10;1.00;;;;;;5019318;28;20297;-82
2022/02/13 01:24:16;;;;;;;;;;;1.10;1.00;;;;;;5033236;28;19985;-82
2022/02/13 01:26:41;;;;;;;;;;;1.00;1.00;;;;;;5034456;28;19921;-82
2022/02/13 01:29:06;;;;;;;;;;;1.00;1.00;;;;;;5035706;28;19956;-83
2022/02/13 01:31:34;;;;;;;;;;;1.00;1.00;;;;;;5039798;28;20321;-82
2022/02/13 01:33:59;;;;;;;;;;;1.00;1.00;;;;;;5018613;28;20374;-82
2022/02/13 01:36:25;;;;;;;;;;;1.00;1.00;;;;;;5040412;28;19928;-82
2022/02/13 01:38:50;;;;;;;;;;;1.00;1.00;;;;;;5039578;28;20441;-82
2022/02/13 01:41:17;;;;;;;;;;;1.00;1.00;;;;;;5015338;28;19920;-83
2022/02/13 01:43:44;;;;;;;;;;;1.00;1.00;;;;;;5038001;28;19919;-83
2022/02/13 01:46:09;;;;;;;;;;;1.00;1.00;;;;;;5021436;28;19910;-82
2022/02/13 01:48:35;;;;;;;;;;;0.90;1.00;;;;;;5039507;28;19913;-83
2022/02/13 01:51:00;;;;;;;;;;;0.90;1.00;;;;;;5022907;28;19917;-83
2022/02/13 01:53:27;;;;;;;;;;;1.00;1.00;;;;;;5050379;28;19938;-82
2022/02/13 01:55:52;;;;;;;;;;;1.00;1.00;;;;;;5044002;28;19976;-82
2022/02/13 01:58:18;;;;;;;;;;;0.90;1.00;;;;;;5035139;28;19925;-83
2022/02/13 02:00:43;;;;;;;;;;;1.00;1.00;;;;;;5033546;28;19913;-83
2022/02/13 02:03:09;;;;;;;;;;;0.90;1.00;;;;;;5037497;28;19914;-82
2022/02/13 02:05:35;;;;;;;;;;;0.80;1.00;;;;;;5039348;28;19985;-83
2022/02/13 02:08:00;;;;;;;;;;;0.80;1.00;;;;;;5022252;28;19913;-81
2022/02/13 02:10:26;;;;;;;;;;;0.70;1.00;;;;;;5039815;28;20381;-82
2022/02/13 02:12:51;;;;;;;;;;;0.80;1.00;;;;;;5038826;28;19981;-82
2022/02/13 02:15:17;;;;;;;;;;;0.80;1.00;;;;;;5036105;28;19979;-82
2022/02/13 02:17:42;;;;;;;;;;;0.80;1.00;;;;;;5020880;28;19913;-82
2022/02/13 02:20:08;;;;;;;;;;;0.80;1.00;;;;;;5037192;28;19928;-82
2022/02/13 02:22:33;;;;;;;;;;;0.80;1.00;;;;;;5038499;28;19913;-82
2022/02/13 02:24:59;;;;;;;;;;;0.70;1.00;;;;;;5038943;28;19935;-82
2022/02/13 02:27:24;;;;;;;;;;;0.70;1.00;;;;;;5039242;28;19913;-82
2022/02/13 02:29:50;;;;;;;;;;;0.70;1.00;;;;;;5038624;28;19917;-81
2022/02/13 02:32:16;;;;;;;;;;;0.60;1.00;;;;;;5045467;28;20443;-82
2022/02/13 02:34:42;;;;;;;;;;;0.60;1.00;;;;;;5029093;28;20348;-83
2022/02/13 02:37:08;;;;;;;;;;;0.60;1.00;;;;;;5017612;28;19955;-82
2022/02/13 02:39:33;;;;;;;;;;;0.50;1.00;;;;;;5018273;28;19917;-82
2022/02/13 02:41:59;;;;;;;;;;;0.50;1.00;;;;;;5036148;28;19967;-81
2022/02/13 02:44:25;;;;;;;;;;;0.50;1.00;;;;;;5029518;28;19913;-82
2022/02/13 02:46:50;;;;;;;;;;;0.60;1.00;;;;;;5019861;28;19909;-82
2022/02/13 02:49:16;;;;;;;;;;;0.50;1.00;;;;;;5033535;28;19917;-82
2022/02/13 02:51:41;;;;;;;;;;;0.50;1.00;;;;;;5020181;28;19927;-82
2022/02/13 02:54:07;;;;;;;;;;;0.40;1.00;;;;;;5018457;28;19920;-81
2022/02/13 02:56:32;;;;;;;;;;;0.30;1.00;;;;;;5020086;28;19917;-82
2022/02/13 02:58:58;;;;;;;;;;;0.20;74.00;;;;;;5020217;28;20365;-81
2022/02/13 03:01:23;;;;;;;;;;;0.20;52.40;;;;;;5037765;28;19913;-82
2022/02/13 03:03:49;;;;;;;;;;;0.20;60.90;;;;;;5019696;28;19913;-83
2022/02/13 03:06:14;;;;;;;;;;;0.20;66.50;;;;;;5016455;28;19920;-82
2022/02/13 03:08:39;;;;;;;;;;;0.10;1.00;;;;;;5031045;28;20267;-83
2022/02/13 03:11:05;;;;;;;;;;;0.10;1.00;;;;;;5039592;28;19913;-82
2022/02/13 03:13:31;;;;;;;;;;;0.10;1.00;;;;;;5019053;28;20024;-82
2022/02/13 03:15:56;;;;;;;;;;;0.10;1.00;;;;;;5037072;28;20013;-82
2022/02/13 03:18:22;;;;;;;;;;;0.10;1.00;;;;;;5036893;28;19927;-82
2022/02/13 03:20:49;;;;;;;;;;;0.10;1.00;;;;;;5019865;28;20262;-82
2022/02/13 03:23:15;;;;;;;;;;;0.00;1.00;;;;;;5032529;28;20004;-82
2022/02/13 03:25:40;;;;;;;;;;;0.00;1.00;;;;;;5016096;28;19949;-82
2022/02/13 03:28:06;;;;;;;;;;;0.00;1.00;;;;;;5016648;28;19916;-83
2022/02/13 03:30:32;;;;;;;;;;;0.00;1.00;;;;;;5043307;28;19923;-82
2022/02/13 03:32:57;;;;;;;;;;;0.00;1.00;;;;;;5024657;28;19921;-82
2022/02/13 03:35:23;;;;;;;;;;;0.00;1.00;;;;;;5018798;28;19909;-83
2022/02/13 03:37:48;;;;;;;;;;;0.00;1.00;;;;;;5018986;28;19935;-82
2022/02/13 03:40:14;;;;;;;;;;;0.00;1.00;;;;;;5015380;28;19921;-82
2022/02/13 03:42:39;;;;;;;;;;;0.00;1.00;;;;;;5016566;28;19970;-82
2022/02/13 03:45:05;;;;;;;;;;;0.00;1.00;;;;;;5031845;28;19913;-82
2022/02/13 03:47:30;;;;;;;;;;;0.10;1.00;;;;;;5035778;28;19917;-82
2022/02/13 03:49:56;;;;;;;;;;;0.10;1.00;;;;;;5034802;28;20009;-81
2022/02/13 03:52:21;;;;;;;;;;;0.10;1.00;;;;;;5036053;28;19916;-81
2022/02/13 03:54:47;;;;;;;;;;;0.20;1.00;;;;;;5018068;28;19913;-83
2022/02/13 03:57:13;;;;;;;;;;;0.20;1.00;;;;;;5018177;28;20540;-81
2022/02/13 03:59:44;;;;;;;;;;;0.30;1.00;;;;;;5017809;28;19924;-82
2022/02/13 04:02:09;;;;;;;;;;;0.30;1.00;;;;;;5036537;28;19917;-80
2022/02/13 04:04:35;;;;;;;;;;;0.30;1.00;;;;;;5035743;28;19909;-82
2022/02/13 04:07:00;;;;;;;;;;;0.40;1.00;;;;;;5022785;28;19948;-82
2022/02/13 04:09:26;;;;;;;;;;;0.40;1.00;;;;;;5035017;28;19913;-82
2022/02/13 04:11:51;;;;;;;;;;;0.40;1.00;;;;;;5035623;28;19959;-81
2022/02/13 04:14:17;;;;;;;;;;;0.40;1.00;;;;;;5017354;28;19913;-81
2022/02/13 04:16:42;;;;;;;;;;;0.40;1.00;;;;;;5035969;28;19919;-81
2022/02/13 04:19:08;;;;;;;;;;;0.50;1.00;;;;;;5036013;28;19964;-82
2022/02/13 04:21:33;;;;;;;;;;;0.50;1.00;;;;;;5017953;28;19913;-81
2022/02/13 04:23:58;;;;;;;;;;;0.40;1.00;;;;;;5035335;28;19948;-81
2022/02/13 04:26:25;;;;;;;;;;;0.50;1.00;;;;;;5035575;28;19917;-82
2022/02/13 04:28:50;;;;;;;;;;;0.50;1.00;;;;;;5036004;28;19917;-82
2022/02/13 04:31:16;;;;;;;;;;;0.50;1.00;;;;;;5018999;28;19917;-81
2022/02/13 04:33:41;;;;;;;;;;;0.40;1.00;;;;;;5018159;28;20419;-83
2022/02/13 04:36:08;;;;;;;;;;;0.40;1.00;;;;;;5018357;28;19917;-82
2022/02/13 04:38:34;;;;;;;;;;;0.40;1.00;;;;;;5018477;28;19928;-82
2022/02/13 04:41:00;;;;;;;;;;;0.40;1.00;;;;;;5018404;28;19913;-82
2022/02/13 04:43:26;;;;;;;;;;;0.40;1.00;;;;;;5035894;28;19913;-83
2022/02/13 04:45:52;;;;;;;;;;;0.40;1.00;;;;;;5031097;28;20389;-84
2022/02/13 04:48:18;;;;;;;;;;;0.40;1.00;;;;;;5033929;28;19917;-82
2022/02/13 04:50:43;;;;;;;;;;;0.40;1.00;;;;;;5034644;28;19921;-83
2022/02/13 04:53:08;;;;;;;;;;;0.40;1.00;;;;;;5036200;28;19909;-82
2022/02/13 04:55:34;;;;;;;;;;;0.40;1.00;;;;;;5036547;28;19917;-82
2022/02/13 04:58:02;;;;;;;;;;;0.40;1.00;;;;;;5032531;28;19989;-82
2022/02/13 05:00:27;;;;;;;;;;;0.40;1.00;;;;;;5024407;28;19921;-81
2022/02/13 05:02:53;;;;;;;;;;;0.40;1.00;;;;;;5035741;28;19913;-82
2022/02/13 05:05:18;;;;;;;;;;;0.50;1.00;;;;;;5036793;28;19917;-82
2022/02/13 05:07:44;;;;;;;;;;;0.40;1.00;;;;;;5019538;28;20343;-81
2022/02/13 05:10:09;;;;;;;;;;;0.40;1.00;;;;;;5028867;28;19944;-81
2022/02/13 05:12:34;;;;;;;;;;;0.40;1.00;;;;;;5049956;28;20366;-81
2022/02/13 05:15:00;;;;;;;;;;;0.40;1.00;;;;;;5042563;28;19970;-82
2022/02/13 05:17:25;;;;;;;;;;;0.50;1.00;;;;;;5022912;28;19996;-81
2022/02/13 05:19:51;;;;;;;;;;;0.40;1.00;;;;;;5040083;28;19939;-82
2022/02/13 05:22:17;;;;;;;;;;;0.50;1.00;;;;;;5021824;28;19920;-81
2022/02/13 05:24:42;;;;;;;;;;;0.40;1.00;;;;;;5022440;28;19918;-83
2022/02/13 05:27:08;;;;;;;;;;;0.40;1.00;;;;;;5040602;28;19913;-83
2022/02/13 05:29:34;;;;;;;;;;;0.40;1.00;;;;;;5038804;28;19974;-81
2022/02/13 05:32:00;;;;;;;;;;;0.40;1.00;;;;;;5036861;28;20409;-82
2022/02/13 05:34:25;;;;;;;;;;;0.40;1.00;;;;;;5022482;28;19910;-83
2022/02/13 05:36:51;;;;;;;;;;;0.40;1.00;;;;;;5022842;28;20003;-82
2022/02/13 05:39:16;;;;;;;;;;;0.40;1.00;;;;;;5040502;28;19920;-83
2022/02/13 05:41:42;;;;;;;;;;;0.40;1.00;;;;;;5041669;28;19921;-82
2022/02/13 05:44:08;;;;;;;;;;;0.40;1.00;;;;;;5044048;28;19932;-82
2022/02/13 05:46:33;;;;;;;;;;;0.40;1.00;;;;;;5025664;28;19979;-82
2022/02/13 05:48:59;;;;;;;;;;;0.50;1.00;;;;;;5020465;28;19909;-82
2022/02/13 05:51:26;;;;;;;;;;;0.50;1.00;;;;;;5018826;28;19913;-81
2022/02/13 05:53:55;;;;;;;;;;;0.50;1.00;;;;;;5017119;28;19909;-82
2022/02/13 05:56:21;;;;;;;;;;;0.50;1.00;;;;;;5036576;28;19917;-81
2022/02/13 05:58:47;;;;;;;;;;;0.50;1.00;;;;;;5036907;28;19920;-81
2022/02/13 06:01:13;;;;;;;;;;;0.50;1.00;;;;;;5037764;28;19913;-82
2022/02/13 06:03:38;;;;;;;;;;;0.50;1.00;;;;;;5037450;28;19913;-81
2022/02/13 06:06:04;;;;;;;;;;;0.50;1.00;;;;;;5019786;28;19925;-82
2022/02/13 06:08:29;;;;;;;;;;;0.50;1.00;;;;;;5059482;22;19925;-84
2022/02/13 06:10:55;;;;;;;;;;;0.50;1.00;;;;;;5035834;28;19917;-84
2022/02/13 06:13:20;;;;;;;;;;;0.60;1.00;;;;;;5033438;28;19928;-84
2022/02/13 06:15:46;;;;;;;;;;;0.60;1.00;;;;;;5036286;28;20305;-83
2022/02/13 06:18:11;;;;;;;;;;;0.60;1.00;;;;;;5050208;28;19916;-84
2022/02/13 06:20:37;;;;;;;;;;;0.60;1.00;;;;;;5054475;28;19924;-84
2022/02/13 06:23:02;;;;;;;;;;;0.70;1.00;;;;;;5055124;28;19909;-84
2022/02/13 06:25:28;;;;;;;;;;;0.70;1.00;;;;;;5041569;28;19921;-84
2022/02/13 06:27:53;;;;;;;;;;;0.80;1.00;;;;;;5054069;28;20339;-84
2022/02/13 06:30:19;;;;;;;;;;;0.80;1.00;;;;;;5037414;28;19921;-84
2022/02/13 06:32:44;;;;;;;;;;;0.80;1.00;;;;;;5041815;28;19963;-84
2022/02/13 06:35:10;;;;;;;;;;;0.90;1.00;;;;;;5042058;28;19913;-84
2022/02/13 06:37:38;;;;;;;;;;;0.90;1.00;;;;;;5054332;28;19996;-85
2022/02/13 06:40:04;;;;;;;;;;;1.00;1.00;;;;;;5060967;28;19921;-85
2022/02/13 06:42:30;;;;;;;;;;;1.10;1.00;;;;;;5063372;28;19984;-85
2022/02/13 06:44:55;;;;;;;;;;;1.30;1.00;;;;;;5047000;28;19963;-85
2022/02/13 06:47:21;;;;;;;;;;;1.30;1.00;;;;;;5044462;28;20372;-85
2022/02/13 06:49:46;;;;;;;;;;;1.40;1.00;;;;;;5033646;28;20000;-85
2022/02/13 06:52:12;;;;;;;;;;;1.50;1.00;;;;;;5040876;28;19967;-84
2022/02/13 06:54:37;;;;;;;;;;;1.50;1.00;;;;;;5051634;28;19931;-85
2022/02/13 06:57:03;;;;;;;;;;;1.50;1.00;;;;;;5051397;28;19920;-85
2022/02/13 06:59:28;;;;;;;;;;;1.50;1.00;;;;;;5041720;28;19909;-85
2022/02/13 07:01:53;;;;;;;;;;;1.60;1.00;;;;;;5049589;28;19913;-85
2022/02/13 07:04:19;;;;;;;;;;;1.60;1.00;;;;;;5042058;28;19916;-85
2022/02/13 07:06:45;;;;;;;;;;;1.70;1.00;;;;;;5043945;28;19917;-85
2022/02/13 07:09:10;;;;;;;;;;;1.70;1.00;;;;;;5035755;28;19917;-84
2022/02/13 07:11:36;;;;;;;;;;;1.80;1.00;;;;;;5037526;28;19937;-85
2022/02/13 07:14:01;;;;;;;;;;;1.90;1.00;;;;;;5046132;28;20008;-84
2022/02/13 07:16:29;;;;;;;;;;;2.10;1.00;;;;;;5035193;28;20977;-85
2022/02/13 07:18:54;;;;;;;;;;;2.30;99.90;;;;;;5035281;28;19913;-85
2022/02/13 07:21:20;;;;;;;;;;;2.50;99.90;;;;;;5035404;28;19939;-85
2022/02/13 07:23:45;;;;;;;;;;;2.60;99.90;;;;;;5036118;28;19917;-85
2022/02/13 07:26:11;;;;;;;;;;;2.80;99.90;;;;;;5034010;28;20003;-83
2022/02/13 07:31:20;;;;;;;;;;;3.20;99.90;;;;;;5035972;28;19940;-82
2022/02/13 07:33:46;;;;;;;;;;;3.50;99.90;;;;;;5035575;28;19913;-82
2022/02/13 07:36:12;;;;;;;;;;;4.70;99.90;;;;;;5036287;28;19913;-83
2022/02/13 07:38:37;;;;;;;;;;;6.70;99.90;;;;;;5038901;28;19913;-83
2022/02/13 07:41:03;;;;;;;;;;;8.60;99.90;;;;;;5036651;28;19919;-84
2022/02/13 07:43:28;;;;;;;;;;;10.10;99.90;;;;;;5039984;28;19913;-83
2022/02/13 07:45:54;;;;;;;;;;;11.30;99.90;;;;;;5075149;28;19913;-83
2022/02/13 07:48:20;;;;;;;;;;;11.60;99.90;;;;;;5040135;28;19924;-83
2022/02/13 07:50:45;;;;;;;;;;;12.40;99.90;;;;;;5039468;28;20007;-83
2022/02/13 07:53:11;;;;;;;;;;;13.40;99.90;;;;;;5044782;28;19936;-83
2022/02/13 07:55:36;;;;;;;;;;;14.30;99.90;;;;;;5084240;28;20297;-83
2022/02/13 07:58:05;;;;;;;;;;;15.10;99.90;;;;;;5045119;28;19908;-83
2022/02/13 08:00:30;;;;;;;;;;;15.70;99.90;;;;;;5049610;28;19924;-83
2022/02/13 08:02:56;;;;;;;;;;;15.80;99.90;;;;;;5052302;28;19909;-82
2022/02/13 08:05:21;;;;;;;;;;;15.40;99.90;;;;;;5045715;28;19922;-83
2022/02/13 08:07:47;;;;;;;;;;;15.20;99.90;;;;;;5072513;28;20000;-84
2022/02/13 08:10:13;;;;;;;;;;;15.50;99.90;;;;;;5037483;28;20019;-83
2022/02/13 08:12:39;;;;;;;;;;;15.70;99.90;;;;;;5037712;28;19973;-82
2022/02/13 08:15:04;;;;;;;;;;;15.60;99.90;;;;;;5038805;28;20329;-83
2022/02/13 08:17:30;;;;;;;;;;;15.30;99.90;;;;;;5043270;28;19936;-83
2022/02/13 08:19:55;;;;;;;;;;;15.30;99.90;;;;;;5042425;28;19909;-83
2022/02/13 08:22:21;;;;;;;;;;;15.20;99.90;;;;;;5045879;28;19967;-83
2022/02/13 08:24:46;;;;;;;;;;;15.40;99.90;;;;;;5044173;28;19968;-83
2022/02/13 08:27:12;;;;;;;;;;;15.30;99.90;;;;;;5045546;28;19915;-83
2022/02/13 08:29:38;;;;;;;;;;;15.30;99.90;;;;;;5045680;28;19913;-83
2022/02/13 08:32:03;;;;;;;;;;;15.20;99.90;;;;;;5044496;28;19909;-83
2022/02/13 08:34:29;;;;;;;;;;;15.70;99.90;;;;;;5042348;28;19915;-83
2022/02/13 08:36:55;;;;;;;;;;;16.40;99.90;;;;;;5038696;28;19913;-83
2022/02/13 08:39:20;;;;;;;;;;;17.50;99.90;;;;;;5034874;28;19917;-83
2022/02/13 08:41:45;;;;;;;;;;;18.20;99.90;;;;;;5041948;28;19913;-83
2022/02/13 08:44:11;;;;;;;;;;;18.40;99.90;;;;;;5043130;28;19909;-84
2022/02/13 08:46:36;;;;;;;;;;;18.20;99.90;;;;;;5048307;28;19913;-83
2022/02/13 08:49:03;;;;;;;;;;;18.30;99.90;;;;;;5048299;28;20381;-84
2022/02/13 08:51:28;;;;;;;;;;;18.50;99.90;;;;;;5047333;28;19972;-83
2022/02/13 08:53:54;;;;;;;;;;;18.30;99.90;;;;;;5044930;28;19913;-83
2022/02/13 08:56:20;;;;;;;;;;;18.50;99.90;;;;;;5047515;28;19917;-83
2022/02/13 08:58:46;;;;;;;;;;;18.90;99.90;;;;;;5048593;28;19980;-84
2022/02/13 09:01:13;;;;;;;;;;;19.00;99.90;;;;;;5048959;28;19940;-83
2022/02/13 09:03:39;;;;;;;;;;;19.60;99.90;;;;;;5049592;28;19909;-83
2022/02/13 09:06:06;;;;;;;;;;;19.70;99.90;;;;;;5050274;28;19971;-83
2022/02/13 09:08:31;;;;;;;;;;;19.80;99.90;;;;;;5049394;28;19917;-83
2022/02/13 09:10:56;;;;;;;;;;;20.00;99.90;;;;;;5043889;28;19979;-83
2022/02/13 09:13:22;;;;;;;;;;;20.30;99.90;;;;;;5042651;28;19909;-83
2022/02/13 09:15:48;;;;;;;;;;;20.50;99.90;;;;;;5041097;28;19983;-83
2022/02/13 09:18:13;;;;;;;;;;;21.10;99.90;;;;;;5039855;28;20369;-83
2022/02/13 09:20:44;;;;;;;;;;;21.70;99.90;;;;;;5073660;28;19933;-83
2022/02/13 09:23:10;;;;;;;;;;;21.60;99.90;;;;;;5040424;28;19909;-83
2022/02/13 09:25:36;;;;;;;;;;;21.10;99.90;;;;;;5043243;28;19909;-83
2022/02/13 09:28:01;;;;;;;;;;;20.10;99.90;;;;;;5043416;28;19909;-83
2022/02/13 09:30:27;;;;;;;;;;;19.90;99.90;;;;;;5044836;28;20377;-83
2022/02/13 09:32:53;;;;;;;;;;;20.20;99.90;;;;;;5078649;28;19939;-84
2022/02/13 09:35:18;;;;;;;;;;;20.50;99.90;;;;;;5045320;28;20386;-83
2022/02/13 09:37:44;;;;;;;;;;;21.80;99.90;;;;;;5042794;28;19909;-83
2022/02/13 09:40:09;;;;;;;;;;;21.40;99.90;;;;;;5044615;28;19915;-83
2022/02/13 09:42:36;;;;;;;;;;;22.10;99.90;;;;;;5043491;28;20392;-83
2022/02/13 09:45:03;;;;;;;;;;;22.50;99.90;;;;;;5043145;28;19909;-83
2022/02/13 09:47:28;;;;;;;;;;;22.40;99.90;;;;;;5041425;28;19916;-83
2022/02/13 09:49:54;;;;;;;;;;;22.90;99.90;;;;;;5042559;28;19913;-83
2022/02/13 09:52:20;;;;;;;;;;;23.30;99.90;;;;;;5040302;28;20373;-83
2022/02/13 09:54:45;;;;;;;;;;;24.10;99.90;;;;;;5041255;28;19909;-83
2022/02/13 09:59:59;;;;;;;;;;;25.40;99.90;;;;;;5042856;28;19924;-83
2022/02/13 10:02:34;;;;;;;;;;;24.90;99.90;;;;;;5042326;28;20248;-84
2022/02/13 10:05:00;;;;;;;;;;;24.30;99.90;;;;;;5042345;28;20369;-83
2022/02/13 10:07:26;;;;;;;;;;;24.70;99.90;;;;;;5042243;28;19909;-83
2022/02/13 10:09:57;;;;;;;;;;;24.60;99.90;;;;;;5042859;28;20320;-83
2022/02/13 10:12:38;;;;;;;;;;;24.80;99.90;;;;;;5037874;28;19913;-83
2022/02/13 10:15:22;;;;;;;;;;;25.40;99.90;;;;;;5040068;28;19909;-83
2022/02/13 10:17:58;;;;;;;;;;;25.60;99.90;;;;;;5037627;28;20265;-83
2022/02/13 10:20:27;;;;;;;;;;;25.70;99.90;;;;;;5039069;28;19950;-83
2022/02/13 10:22:53;;;;;;;;;;;24.50;99.90;;;;;;5038131;28;19955;-83
2022/02/13 10:25:18;;;;;;;;;;;23.70;99.90;;;;;;5038157;28;19913;-83
2022/02/13 10:27:47;;;;;;;;;;;23.90;99.90;;;;;;5038939;28;19913;-83
2022/02/13 10:30:32;;;;;;;;;;;24.40;99.90;;;;;;5038466;28;20011;-83
2022/02/13 10:33:12;;;;;;;;;;;24.60;99.90;;;;;;5038582;28;19913;-83
2022/02/13 10:35:37;;;;;;;;;;;24.50;99.90;;;;;;5037385;28;20267;-83
2022/02/13 10:38:03;;;;;;;;;;;23.60;99.90;;;;;;5038942;28;19916;-83
2022/02/13 10:40:29;;;;;;;;;;;22.50;99.90;;;;;;5038781;28;20326;-83
2022/02/13 10:43:03;;;;;;;;;;;21.50;99.90;;;;;;5042689;28;19913;-83
2022/02/13 10:45:30;;;;;;;;;;;20.80;99.90;;;;;;5042648;28;19909;-83
2022/02/13 10:47:58;;;;;;;;;;;20.50;99.90;;;;;;5040626;28;19913;-83
2022/02/13 10:50:24;;;;;;;;;;;20.10;99.90;;;;;;5039951;28;19913;-83
2022/02/13 10:52:51;;;;;;;;;;;19.70;99.90;;;;;;5072557;28;20440;-82
2022/02/13 10:55:17;;;;;;;;;;;19.20;99.90;;;;;;5040520;28;19998;-83
2022/02/13 10:57:44;;;;;;;;;;;18.80;99.90;;;;;;5039205;28;19909;-83
2022/02/13 11:00:10;;;;;;;;;;;18.40;99.90;;;;;;5042531;28;19909;-83
2022/02/13 11:02:39;;;;;;;;;;;18.30;99.90;;;;;;5044458;28;19936;-83
2022/02/13 11:05:08;;;;;;;;;;;18.70;99.90;;;;;;5044514;28;19980;-83
2022/02/13 11:07:38;;;;;;;;;;;19.60;99.90;;;;;;5041212;28;20623;-83
2022/02/13 11:10:04;;;;;;;;;;;20.70;99.90;;;;;;5041863;28;19913;-83
2022/02/13 11:12:30;;;;;;;;;;;21.70;99.90;;;;;;5040390;28;19916;-83
2022/02/13 11:15:12;;;;;;;;;;;21.90;99.90;;;;;;5044648;28;20274;-83
2022/02/13 11:17:40;;;;;;;;;;;21.50;99.90;;;;;;5076375;28;19940;-83
2022/02/13 11:20:05;;;;;;;;;;;20.90;99.90;;;;;;5044459;28;19913;-83
2022/02/13 11:22:32;;;;;;;;;;;20.50;99.90;;;;;;5075931;28;19909;-83
2022/02/13 11:24:57;;;;;;;;;;;20.50;99.90;;;;;;5077119;28;20412;-83
2022/02/13 11:27:25;;;;;;;;;;;20.90;99.90;;;;;;5043685;28;19910;-83
2022/02/13 11:29:57;;;;;;;;;;;21.20;99.90;;;;;;5039876;28;20407;-83
2022/02/13 11:32:35;;;;;;;;;;;21.00;99.90;;;;;;5056922;28;20420;-83
2022/02/13 11:35:02;;;;;;;;;;;20.90;99.90;;;;;;5023774;28;19916;-83
2022/02/13 11:37:41;;;;;;;;;;;20.50;99.90;;;;;;5039194;28;19909;-83
2022/02/13 11:40:06;;;;;;;;;;;20.40;99.90;;;;;;5024421;28;20378;-83
2022/02/13 11:42:36;;;;;;;;;;;19.70;99.90;;;;;;5022741;28;19909;-82
2022/02/13 11:45:16;;;;;;;;;;;19.50;99.90;;;;;;5022263;28;19910;-83
2022/02/13 11:47:42;;;;;;;;;;;19.40;99.90;;;;;;5036286;28;19913;-83
2022/02/13 11:50:09;;;;;;;;;;;19.00;99.90;;;;;;5039408;28;19935;-83
2022/02/13 11:52:36;;;;;;;;;;;19.40;99.90;;;;;;5039170;28;20373;-82
2022/02/13 11:55:12;;;;;;;;;;;19.80;99.90;;;;;;5040018;28;20308;-83
2022/02/13 11:57:52;;;;;;;;;;;19.80;99.90;;;;;;5040573;28;19909;-83
2022/02/13 12:00:17;;;;;;;;;;;20.60;99.90;;;;;;5072831;28;19916;-83
2022/02/13 12:02:44;;;;;;;;;;;21.20;99.90;;;;;;5035785;28;20280;-83
2022/02/13 12:05:10;;;;;;;;;;;21.70;99.90;;;;;;5038860;28;19917;-83
2022/02/13 12:10:36;;;;;;;;;;;22.70;99.90;;;;;;5036077;28;19929;-82
2022/02/13 12:13:09;;;;;;;;;;;22.90;99.90;;;;;;5044363;28;19917;-82
2022/02/13 12:15:35;;;;;;;;;;;23.00;99.90;;;;;;5022502;28;19916;-82
2022/02/13 12:18:04;;;;;;;;;;;22.90;99.90;;;;;;5034817;28;19910;-82
2022/02/13 12:20:31;;;;;;;;;;;22.70;99.90;;;;;;5033796;28;19975;-82
2022/02/13 12:23:03;;;;;;;;;;;22.90;99.90;;;;;;5035887;28;19909;-82
2022/02/13 12:25:32;;;;;;;;;;;23.00;99.90;;;;;;5034685;28;20046;-82
2022/02/13 12:27:58;;;;;;;;;;;22.90;99.90;;;;;;5035345;28;19968;-82
2022/02/13 12:30:32;;;;;;;;;;;22.90;99.90;;;;;;5019221;28;20419;-82
2022/02/13 12:33:01;;;;;;;;;;;22.90;99.90;;;;;;5018836;28;19952;-82
2022/02/13 12:35:28;;;;;;;;;;;22.90;99.90;;;;;;5017104;28;19916;-82
2022/02/13 12:37:53;;;;;;;;;;;23.20;99.90;;;;;;5036041;28;20012;-82
2022/02/13 12:40:25;;;;;;;;;;;23.40;99.90;;;;;;5018007;28;20401;-82
2022/02/13 12:42:55;;;;;;;;;;;22.10;99.90;;;;;;5036315;28;19943;-82
2022/02/13 12:45:22;;;;;;;;;;;22.20;99.90;;;;;;5035744;28;19913;-82
2022/02/13 12:47:50;;;;;;;;;;;21.60;99.90;;;;;;5018031;28;19915;-82
2022/02/13 12:50:20;;;;;;;;;;;21.50;99.90;;;;;;5018882;28;20004;-82
2022/02/13 12:52:46;;;;;;;;;;;21.80;99.90;;;;;;5018243;28;19909;-82
2022/02/13 12:55:15;;;;;;;;;;;21.90;99.90;;;;;;5018299;28;19921;-82
2022/02/13 12:57:42;;;;;;;;;;;22.20;99.90;;;;;;5035732;28;19909;-82
2022/02/13 13:00:28;;;;;;;;;;;22.30;99.90;;;;;;5036419;28;19917;-82
2022/02/13 13:02:57;;;;;;;;;;;21.80;99.90;;;;;;5031988;28;20039;-82
2022/02/13 13:05:30;;;;;;;;;;;21.40;99.90;;;;;;5036196;28;20399;-82
2022/02/13 13:08:09;;;;;;;;;;;21.20;99.90;;;;;;5017393;28;19909;-82
2022/02/13 13:10:35;;;;;;;;;;;21.10;99.90;;;;;;5018349;28;19917;-82
2022/02/13 13:13:06;;;;;;;;;;;21.30;99.90;;;;;;5036649;28;19960;-82
2022/02/13 13:15:31;;;;;;;;;;;21.30;99.90;;;;;;5037393;28;19909;-82
2022/02/13 13:17:57;;;;;;;;;;;21.30;99.90;;;;;;5016626;28;19913;-82
2022/02/13 13:20:24;;;;;;;;;;;21.20;99.90;;;;;;5026829;28;19920;-82
2022/02/13 13:23:08;;;;;;;;;;;21.10;99.90;;;;;;5035756;28;19916;-82
2022/02/13 13:25:34;;;;;;;;;;;21.00;99.90;;;;;;5035152;28;19996;-82
2022/02/13 13:28:06;;;;;;;;;;;21.00;99.90;;;;;;5018445;28;19955;-82
2022/02/13 13:30:31;;;;;;;;;;;21.10;99.90;;;;;;5037779;28;20009;-82
2022/02/13 13:33:00;;;;;;;;;;;21.20;99.90;;;;;;5022008;28;20385;-82
2022/02/13 13:35:28;;;;;;;;;;;21.10;99.90;;;;;;5018812;28;20039;-82
2022/02/13 13:37:53;;;;;;;;;;;20.90;99.90;;;;;;5030536;28;20362;-82
2022/02/13 13:40:25;;;;;;;;;;;20.70;99.90;;;;;;5021768;28;20012;-82
2022/02/13 13:42:57;;;;;;;;;;;20.90;99.90;;;;;;5038114;28;19909;-82
2022/02/13 13:45:28;;;;;;;;;;;21.10;99.90;;;;;;5039850;28;19995;-82
2022/02/13 13:47:54;;;;;;;;;;;21.30;99.90;;;;;;5039411;28;19909;-82
2022/02/13 13:50:22;;;;;;;;;;;21.30;99.90;;;;;;5021817;28;19936;-82
2022/02/13 13:52:47;;;;;;;;;;;21.50;99.90;;;;;;5036788;28;19967;-81
2022/02/13 13:55:13;;;;;;;;;;;21.40;99.90;;;;;;5026194;28;19913;-82
2022/02/13 13:57:39;;;;;;;;;;;21.30;99.90;;;;;;5021133;28;19959;-82
2022/02/13 14:00:05;;;;;;;;;;;21.20;99.90;;;;;;5038196;28;19914;-82
2022/02/13 14:02:31;;;;;;;;;;;21.10;99.90;;;;;;5038257;28;19910;-82
2022/02/13 14:04:56;;;;;;;;;;;21.00;99.90;;;;;;5020910;28;19909;-82
2022/02/13 14:07:22;;;;;;;;;;;20.90;99.90;;;;;;5021132;28;19909;-82
2022/02/13 14:09:48;;;;;;;;;;;20.80;99.90;;;;;;5038326;28;19917;-82
2022/02/13 14:12:15;;;;;;;;;;;20.50;99.90;;;;;;5019957;28;19916;-82
2022/02/13 14:14:40;;;;;;;;;;;20.40;99.90;;;;;;5038176;28;19916;-82
2022/02/13 14:17:07;;;;;;;;;;;19.80;99.90;;;;;;5037882;28;19909;-82
2022/02/13 14:19:32;;;;;;;;;;;19.60;99.90;;;;;;5038164;28;19959;-82
2022/02/13 14:21:58;;;;;;;;;;;19.40;99.90;;;;;;5038043;28;19910;-82
2022/02/13 14:24:24;;;;;;;;;;;19.20;99.90;;;;;;5019780;28;19959;-82
2022/02/13 14:26:49;;;;;;;;;;;19.00;99.90;;;;;;5037502;28;19916;-82
2022/02/13 14:29:15;;;;;;;;;;;18.60;99.90;;;;;;5019344;28;19917;-82
2022/02/13 14:31:40;;;;;;;;;;;18.60;99.90;;;;;;5037580;28;20011;-82
2022/02/13 14:34:06;;;;;;;;;;;18.40;99.90;;;;;;5037211;28;19992;-82
2022/02/13 14:36:31;;;;;;;;;;;18.50;99.90;;;;;;5038376;28;20284;-82